Time;durP1;ratioP1;P1;durP2;ratioP2;P2;SDS_P1;SDS_P2;PMS_P1;PMS_P2;Temp;Humidity;BMP_temperature;BMP_pressure;BME280_temperature;BME280_humidity;BME280_pressure;Samples;Min_cycle;Max_cycle;Signal;HPM_P1;HPM_P2
2023/02/20 00:00:44;;;;;;;;;31.75;25.50;;;;;10.16;100.00;102731.22;5061795;28;50641;-72
2023/02/20 00:03:13;;;;;;;;;31.50;23.75;;;;;10.14;100.00;102730.28;5042699;28;45346;-72
2023/02/20 00:05:39;;;;;;;;;31.75;28.00;;;;;10.13;100.00;102733.75;5043220;28;45456;-72
2023/02/20 00:08:05;;;;;;;;;33.00;28.25;;;;;10.09;100.00;102730.06;5061246;28;46184;-73
2023/02/20 00:10:31;;;;;;;;;37.00;27.75;;;;;10.05;100.00;102724.59;5056893;28;45288;-73
2023/02/20 00:12:56;;;;;;;;;33.75;24.75;;;;;10.00;100.00;102726.13;5040143;28;45458;-72
2023/02/20 00:15:22;;;;;;;;;31.75;26.50;;;;;10.00;100.00;102723.47;5041026;28;45792;-72
2023/02/20 00:17:48;;;;;;;;;24.75;22.25;;;;;9.97;100.00;102725.16;5040070;28;46451;-73
2023/02/20 00:20:15;;;;;;;;;31.25;28.00;;;;;9.93;100.00;102717.03;5034413;28;45891;-72
2023/02/20 00:22:40;;;;;;;;;27.00;25.75;;;;;9.89;100.00;102715.09;5022253;28;45550;-72
2023/02/20 00:25:05;;;;;;;;;31.00;28.00;;;;;9.87;100.00;102715.03;5037035;28;52052;-73
2023/02/20 00:27:31;;;;;;;;;32.00;28.50;;;;;9.84;100.00;102711.34;5039883;28;48677;-72
2023/02/20 00:29:56;;;;;;;;;34.00;25.00;;;;;9.82;100.00;102692.81;5038861;28;63148;-73
2023/02/20 00:32:22;;;;;;;;;36.00;31.75;;;;;9.81;100.00;102705.97;5056984;28;45502;-72
2023/02/20 00:34:47;;;;;;;;;28.75;25.25;;;;;9.74;100.00;102702.13;5037366;28;53978;-72
2023/02/20 00:37:12;;;;;;;;;31.50;27.75;;;;;9.76;100.00;102703.09;5056368;28;50072;-72
2023/02/20 00:39:38;;;;;;;;;28.75;24.00;;;;;9.76;100.00;102710.13;5057325;28;45500;-73
2023/02/20 00:42:03;;;;;;;;;28.75;25.00;;;;;9.76;100.00;102710.13;5056744;28;45306;-72
2023/02/20 00:44:28;;;;;;;;;39.00;28.00;;;;;9.75;100.00;102708.28;5017094;28;45537;-73
2023/02/20 00:46:54;;;;;;;;;39.25;32.50;;;;;9.74;100.00;102707.41;5036717;28;45612;-73
2023/02/20 00:49:19;;;;;;;;;40.00;32.25;;;;;9.73;100.00;102702.97;5036169;28;45528;-72
2023/02/20 00:51:45;;;;;;;;;30.25;24.50;;;;;9.73;100.00;102704.69;5043980;28;47123;-72
2023/02/20 00:54:10;;;;;;;;;34.75;28.25;;;;;9.69;100.00;102693.09;5036327;28;45442;-71
2023/02/20 00:56:35;;;;;;;;;35.50;30.50;;;;;9.68;100.00;102700.13;5056296;28;62585;-72
2023/02/20 00:59:01;;;;;;;;;39.50;29.00;;;;;9.67;100.00;102698.31;5024461;28;62780;-72
2023/02/20 01:01:26;;;;;;;;;31.25;23.00;;;;;9.67;100.00;102703.59;5018714;28;52554;-73
2023/02/20 01:03:52;;;;;;;;;34.50;26.25;;;;;9.63;100.00;102693.72;5057911;28;45606;-73
2023/02/20 01:06:17;;;;;;;;;35.00;26.75;;;;;9.64;100.00;102692.91;5058446;28;46863;-74
2023/02/20 01:08:42;;;;;;;;;37.25;28.25;;;;;9.63;100.00;102692.84;5017837;28;52198;-73
2023/02/20 01:11:08;;;;;;;;;25.75;23.75;;;;;9.61;100.00;102686.59;5036922;28;45605;-72
2023/02/20 01:13:33;;;;;;;;;36.50;28.50;;;;;9.61;100.00;102695.41;5037566;28;51878;-72
2023/02/20 01:15:59;;;;;;;;;32.75;27.00;;;;;9.61;100.00;102707.69;5043488;28;45677;-73
2023/02/20 01:18:25;;;;;;;;;31.00;29.00;;;;;9.56;100.00;102702.22;5055901;28;57784;-73
2023/02/20 01:20:50;;;;;;;;;35.25;25.75;;;;;9.56;100.00;102704.84;5043308;28;45321;-73
2023/02/20 01:23:15;;;;;;;;;23.75;22.50;;;;;9.56;100.00;102693.41;5038147;28;50056;-72
2023/02/20 01:25:41;;;;;;;;;26.50;24.50;;;;;9.54;100.00;102697.72;5056460;28;52313;-73
2023/02/20 01:28:06;;;;;;;;;28.50;22.50;;;;;9.53;100.00;102699.41;5056863;28;45479;-73
2023/02/20 01:30:31;;;;;;;;;30.25;22.50;;;;;9.52;100.00;102688.81;5035752;28;45700;-73
2023/02/20 01:32:57;;;;;;;;;31.50;23.50;;;;;9.50;100.00;102685.22;5035223;28;45250;-72
2023/02/20 01:35:22;;;;;;;;;31.25;26.00;;;;;9.48;100.00;102685.16;5052091;28;61530;-73
2023/02/20 01:37:47;;;;;;;;;31.75;23.00;;;;;9.44;100.00;102673.56;5055881;28;57416;-72
2023/02/20 01:40:16;;;;;;;;;24.50;21.00;;;;;9.47;100.00;102678.06;5055456;28;55144;-72
2023/02/20 01:42:41;;;;;;;;;26.75;23.00;;;;;9.44;100.00;102678.84;5035381;28;45579;-74
2023/02/20 01:45:22;;;;;;;;;16.50;14.75;;;;;9.44;100.00;102691.13;5041287;28;46567;-72
2023/02/20 01:47:49;;;;;;;;;29.50;22.50;;;;;9.40;100.00;102697.06;5056173;28;45382;-75
2023/02/20 01:50:20;;;;;;;;;25.00;18.00;;;;;9.41;100.00;102701.50;5034130;28;45513;-74
2023/02/20 01:52:49;;;;;;;;;23.50;19.25;;;;;9.36;100.00;102696.03;5056677;28;45498;-74
2023/02/20 01:55:26;;;;;;;;;23.75;20.50;;;;;9.39;100.00;102704.09;5037527;28;46201;-75
2023/02/20 01:58:02;;;;;;;;;28.50;22.75;;;;;9.42;100.00;102711.22;5041366;28;45501;-74
2023/02/20 02:00:27;;;;;;;;;23.25;21.00;;;;;9.41;100.00;102718.22;5056567;28;45412;-75
2023/02/20 02:02:59;;;;;;;;;24.00;21.25;;;;;9.41;100.00;102723.50;5043211;28;48001;-73
2023/02/20 02:05:27;;;;;;;;;28.25;22.75;;;;;9.39;100.00;102712.00;5038323;28;45552;-74
2023/02/20 02:07:52;;;;;;;;;25.50;22.00;;;;;9.39;100.00;102719.00;5055836;28;45506;-74
2023/02/20 02:10:23;;;;;;;;;29.50;22.50;;;;;9.36;100.00;102706.56;5038118;28;45630;-74
2023/02/20 02:12:52;;;;;;;;;31.75;24.00;;;;;9.36;100.00;102714.47;5034814;28;45488;-74
2023/02/20 02:15:19;;;;;;;;;29.50;23.75;;;;;9.37;100.00;102707.47;5038420;28;46771;-75
2023/02/20 02:18:12;;;;;;;;;24.50;21.75;;;;;9.37;100.00;102711.00;5056159;28;45483;-74
2023/02/20 02:21:15;;;;;;;;;28.75;24.00;;;;;9.38;100.00;102696.13;5056298;28;45297;-75
2023/02/20 02:23:58;;;;;;;;;33.00;23.50;;;;;9.37;100.00;102694.28;5043586;28;45949;-74
2023/02/20 02:26:51;;;;;;;;;28.50;26.50;;;;;9.36;100.00;102690.75;5039899;28;45719;-74
2023/02/20 02:29:54;;;;;;;;;29.25;24.50;;;;;9.32;100.00;102670.38;5029664;28;45423;-73
2023/02/20 02:32:23;;;;;;;;;28.00;22.25;;;;;9.31;100.00;102679.09;5055157;28;45542;-74
2023/02/20 02:35:07;;;;;;;;;28.75;22.00;;;;;9.29;100.00;102672.88;5037708;28;45392;-73
2023/02/20 02:37:38;;;;;;;;;28.75;22.00;;;;;9.32;100.00;102670.38;5053013;28;45503;-75
2023/02/20 02:40:12;;;;;;;;;30.75;23.00;;;;;9.33;100.00;102666.91;5056107;28;45395;-73
2023/02/20 02:42:47;;;;;;;;;29.00;25.50;;;;;9.36;100.00;102667.03;5052911;28;45524;-73
2023/02/20 02:45:34;;;;;;;;;26.75;21.50;;;;;9.36;100.00;102667.03;5042792;28;46659;-75
2023/02/20 02:48:08;;;;;;;;;36.50;25.25;;;;;9.35;100.00;102659.97;5036590;28;46621;-74
2023/02/20 02:50:36;;;;;;;;;31.50;22.75;;;;;9.38;100.00;102659.22;5041113;28;45288;-74
2023/02/20 02:53:04;;;;;;;;;30.00;23.75;;;;;9.41;100.00;102652.31;5036918;28;45319;-74
2023/02/20 02:55:32;;;;;;;;;23.00;19.75;;;;;9.40;100.00;102647.88;5038677;28;45692;-74
2023/02/20 02:57:59;;;;;;;;;28.00;24.50;;;;;9.40;100.00;102646.97;5037721;28;46677;-74
2023/02/20 03:00:27;;;;;;;;;24.75;20.25;;;;;9.36;100.00;102645.03;5039766;28;45460;-73
2023/02/20 03:02:59;;;;;;;;;28.25;22.50;;;;;9.36;100.00;102647.69;5038189;28;45374;-73
2023/02/20 03:05:39;;;;;;;;;28.75;23.00;;;;;9.38;100.00;102646.03;5038308;28;45551;-73
2023/02/20 03:08:13;;;;;;;;;22.50;18.50;;;;;9.35;100.00;102637.97;5037848;28;45554;-73
2023/02/20 03:10:39;;;;;;;;;27.00;20.00;;;;;9.31;100.00;102631.66;5037789;28;45432;-74
2023/02/20 03:13:05;;;;;;;;;22.50;19.75;;;;;9.27;100.00;102639.34;5036022;28;45587;-73
2023/02/20 03:15:35;;;;;;;;;23.50;19.25;;;;;9.23;100.00;102630.41;5039154;28;45455;-74
2023/02/20 03:18:10;;;;;;;;;25.00;18.25;;;;;9.24;100.00;102623.41;5031907;28;46117;-74
2023/02/20 03:20:41;;;;;;;;;21.25;18.50;;;;;9.19;100.00;102620.56;5047292;28;45559;-74
2023/02/20 03:23:08;;;;;;;;;23.25;21.25;;;;;9.15;100.00;102615.97;5054884;28;45368;-72
2023/02/20 03:25:41;;;;;;;;;22.25;18.50;;;;;9.12;100.00;102613.22;5035241;28;45522;-73
2023/02/20 03:28:34;;;;;;;;;23.75;22.25;;;;;9.09;100.00;102608.69;5037574;28;47438;-73
2023/02/20 03:31:07;;;;;;;;;18.50;17.25;;;;;9.07;100.00;102609.47;5037232;28;45370;-74
2023/02/20 03:44:50;;;;;;;;;19.50;15.75;;;;;8.94;100.00;102592.19;5040038;28;45349;-73
2023/02/20 03:47:17;;;;;;;;;22.25;20.50;;;;;8.91;100.00;102598.22;5039624;28;56661;-73
2023/02/20 03:52:27;;;;;;;;;19.50;14.50;;;;;8.83;100.00;102588.16;5040177;28;45479;-73
2023/02/20 03:54:53;;;;;;;;;17.00;15.75;;;;;8.85;100.00;102583.88;5040127;28;55524;-74
2023/02/20 03:57:27;;;;;;;;;20.50;18.25;;;;;8.82;100.00;102586.34;5058145;28;45482;-73
2023/02/20 03:59:57;;;;;;;;;15.75;12.25;;;;;8.80;100.00;102588.94;5040253;28;46739;-73
2023/02/20 04:02:30;;;;;;;;;23.25;16.50;;;;;8.79;100.00;102587.13;5037133;28;45377;-73
2023/02/20 04:05:00;;;;;;;;;11.00;7.00;;;;;8.79;100.00;102584.50;5038450;28;45610;-73
2023/02/20 04:07:50;;;;;;;;;21.00;18.00;;;;;8.82;100.00;102584.63;5037209;28;45592;-74
2023/02/20 04:10:23;;;;;;;;;20.75;17.00;;;;;8.82;100.00;102583.72;5019349;28;48733;-73
2023/02/20 04:12:49;;;;;;;;;26.00;19.00;;;;;8.80;100.00;102583.66;5036545;28;45441;-72
2023/02/20 04:15:15;;;;;;;;;13.50;10.75;;;;;8.80;100.00;102582.75;5039594;28;45480;-74
2023/02/20 04:17:51;;;;;;;;;18.00;15.75;;;;;8.81;100.00;102576.66;5040429;28;48114;-72
2023/02/20 04:20:17;;;;;;;;;18.00;13.50;;;;;8.80;100.00;102573.13;5056213;28;46171;-73
2023/02/20 04:22:44;;;;;;;;;17.75;16.25;;;;;8.79;100.00;102579.22;5039511;28;56698;-73
2023/02/20 04:25:24;;;;;;;;;18.75;16.00;;;;;8.80;100.00;102572.22;5022014;28;45556;-74
2023/02/20 04:27:50;;;;;;;;;19.00;12.00;;;;;8.76;100.00;102570.28;5057187;28;45210;-73
2023/02/20 04:30:15;;;;;;;;;14.00;13.00;;;;;8.80;100.00;102572.22;5039524;28;47675;-72
2023/02/20 04:32:41;;;;;;;;;16.75;16.75;;;;;8.76;100.00;102570.28;5022746;28;47281;-72
2023/02/20 04:35:08;;;;;;;;;20.25;16.75;;;;;8.77;100.00;102582.59;5039966;28;45552;-72
2023/02/20 04:37:33;;;;;;;;;17.25;13.00;;;;;8.76;100.00;102583.44;5039405;28;45395;-72
2023/02/20 04:39:59;;;;;;;;;17.00;13.50;;;;;8.75;100.00;102576.38;5057603;28;46435;-73
2023/02/20 04:42:24;;;;;;;;;18.50;15.50;;;;;8.73;100.00;102572.75;5038958;28;56359;-74
2023/02/20 04:44:49;;;;;;;;;18.25;13.75;;;;;8.74;100.00;102579.84;5057430;28;50732;-73
2023/02/20 04:47:16;;;;;;;;;21.25;13.00;;;;;8.68;100.00;102569.00;5057386;28;50976;-74
2023/02/20 04:49:42;;;;;;;;;16.25;15.00;;;;;8.72;100.00;102573.59;5038821;28;46227;-73
2023/02/20 04:52:07;;;;;;;;;26.00;16.50;;;;;8.71;100.00;102572.69;5057187;28;59223;-74
2023/02/20 04:54:32;;;;;;;;;21.50;17.00;;;;;8.69;100.00;102579.63;5039525;28;45422;-72
2023/02/20 04:56:58;;;;;;;;;21.75;16.25;;;;;8.69;100.00;102586.63;5038105;28;51047;-73
2023/02/20 04:59:24;;;;;;;;;25.25;18.00;;;;;8.65;100.00;102582.94;5057263;28;47368;-72
2023/02/20 05:01:50;;;;;;;;;15.75;13.50;;;;;8.62;100.00;102583.69;5038994;28;45283;-73
2023/02/20 05:04:17;;;;;;;;;20.50;16.50;;;;;8.62;100.00;102580.16;5036040;28;45507;-73
2023/02/20 05:06:51;;;;;;;;;16.75;15.50;;;;;8.59;100.00;102572.13;5056835;28;45402;-72
2023/02/20 05:09:16;;;;;;;;;25.50;18.25;;;;;8.58;100.00;102575.59;5038603;28;48439;-73
2023/02/20 05:11:42;;;;;;;;;19.00;16.50;;;;;8.56;100.00;102577.22;5057011;28;45492;-72
2023/02/20 05:14:08;;;;;;;;;15.75;15.00;;;;;8.53;100.00;102566.59;5037553;28;45318;-73
2023/02/20 05:16:37;;;;;;;;;16.75;13.00;;;;;8.55;100.00;102578.97;5038936;28;45398;-73
2023/02/20 05:19:02;;;;;;;;;20.25;15.75;;;;;8.53;100.00;102571.84;5039182;28;45811;-74
2023/02/20 05:24:12;;;;;;;;;15.75;14.75;;;;;8.51;100.00;102565.59;5041520;28;45579;-74
2023/02/20 05:26:37;;;;;;;;;17.50;13.25;;;;;8.49;100.00;102565.53;5039047;28;45516;-73
2023/02/20 05:29:03;;;;;;;;;12.00;12.00;;;;;8.48;100.00;102566.34;5038663;28;46144;-74
2023/02/20 05:31:28;;;;;;;;;18.25;13.75;;;;;8.47;100.00;102563.63;5038720;28;45385;-74
2023/02/20 05:33:53;;;;;;;;;23.25;14.50;;;;;8.47;100.00;102550.47;5038375;28;50420;-73
2023/02/20 05:36:19;;;;;;;;;14.00;12.75;;;;;8.47;100.00;102558.38;5055695;28;51362;-74
2023/02/20 05:38:48;;;;;;;;;20.00;15.00;;;;;8.47;100.00;102555.72;5056648;28;51912;-74
2023/02/20 05:41:17;;;;;;;;;16.75;13.50;;;;;8.45;100.00;102553.03;5039192;28;45263;-74
2023/02/20 05:43:42;;;;;;;;;18.50;13.25;;;;;8.43;100.00;102545.91;5056425;28;45302;-74
2023/02/20 05:46:07;;;;;;;;;16.00;14.50;;;;;8.43;100.00;102540.66;5038002;28;45671;-74
2023/02/20 05:48:33;;;;;;;;;20.25;17.25;;;;;8.44;100.00;102552.97;5058991;28;49965;-74
2023/02/20 05:50:58;;;;;;;;;9.25;9.25;;;;;8.43;100.00;102553.81;5038763;28;45528;-74
2023/02/20 05:53:27;;;;;;;;;14.50;12.25;;;;;8.38;100.00;102549.22;5033905;28;45663;-73
2023/02/20 05:55:52;;;;;;;;;15.75;13.25;;;;;8.37;100.00;102541.25;5038060;28;45389;-74
2023/02/20 05:58:18;;;;;;;;;13.00;11.25;;;;;8.35;100.00;102546.41;5055293;28;54556;-74
2023/02/20 06:00:43;;;;;;;;;12.25;11.75;;;;;8.36;100.00;102563.13;5055992;28;45645;-74
2023/02/20 06:03:09;;;;;;;;;14.75;13.50;;;;;8.38;100.00;102562.38;5036429;28;52639;-75
2023/02/20 06:05:34;;;;;;;;;16.00;12.50;;;;;8.35;100.00;102550.75;5036037;28;45469;-73
2023/02/20 06:08:00;;;;;;;;;17.50;12.50;;;;;8.38;100.00;102558.84;5053014;28;45365;-74
2023/02/20 06:10:25;;;;;;;;;16.75;13.50;;;;;8.37;100.00;102552.69;5052208;28;45596;-74
2023/02/20 06:12:51;;;;;;;;;18.25;15.50;;;;;8.38;100.00;102564.13;5031871;28;45582;-73
2023/02/20 06:15:16;;;;;;;;;15.75;12.00;;;;;8.35;100.00;102553.41;5051747;28;53097;-74
2023/02/20 06:17:41;;;;;;;;;19.50;13.75;;;;;8.36;100.00;102556.16;5051459;28;46493;-74
2023/02/20 06:20:08;;;;;;;;;23.50;15.75;;;;;8.38;100.00;102556.22;5017773;28;61072;-74
2023/02/20 06:22:33;;;;;;;;;15.75;13.00;;;;;8.37;100.00;102557.94;5055398;28;45311;-73
2023/02/20 06:24:58;;;;;;;;;24.75;16.00;;;;;8.36;100.00;102563.13;5056259;28;49161;-74
2023/02/20 06:27:24;;;;;;;;;21.00;16.75;;;;;8.36;100.00;102561.41;5034375;28;61581;-74
2023/02/20 06:29:49;;;;;;;;;20.75;16.75;;;;;8.36;100.00;102555.22;5053783;28;58963;-74
2023/02/20 06:32:15;;;;;;;;;25.00;20.50;;;;;8.33;100.00;102558.59;5056351;28;45953;-74
2023/02/20 06:34:40;;;;;;;;;25.00;17.00;;;;;8.36;100.00;102564.06;5038398;28;45393;-75
2023/02/20 06:37:05;;;;;;;;;20.00;17.25;;;;;8.37;100.00;102564.94;5036048;28;62096;-74
2023/02/20 06:39:32;;;;;;;;;20.25;14.00;;;;;8.35;100.00;102561.28;5056787;28;45442;-74
2023/02/20 06:41:57;;;;;;;;;18.00;15.50;;;;;8.40;100.00;102567.72;5057737;28;47167;-73
2023/02/20 06:44:22;;;;;;;;;23.00;21.75;;;;;8.39;100.00;102553.66;5056038;28;50980;-74
2023/02/20 06:46:48;;;;;;;;;27.25;19.50;;;;;8.44;100.00;102567.03;5037489;28;45858;-74
2023/02/20 06:49:13;;;;;;;;;21.00;18.50;;;;;8.45;100.00;102567.94;5024539;28;45341;-74
2023/02/20 06:51:39;;;;;;;;;24.75;15.75;;;;;8.45;100.00;102574.09;5037542;28;45266;-76
2023/02/20 06:54:05;;;;;;;;;25.75;20.00;;;;;8.47;100.00;102572.47;5017444;28;45592;-73
2023/02/20 06:56:33;;;;;;;;;23.00;16.75;;;;;8.53;100.00;102579.75;5057188;28;45542;-75
2023/02/20 06:58:59;;;;;;;;;23.00;19.00;;;;;8.54;100.00;102577.19;5037606;28;45666;-76
2023/02/20 07:01:27;;;;;;;;;22.75;19.50;;;;;8.55;100.00;102575.44;5042954;28;45472;-76
2023/02/20 07:03:54;;;;;;;;;20.00;15.50;;;;;8.58;100.00;102570.34;5027262;28;45482;-76
2023/02/20 07:06:21;;;;;;;;;29.00;20.25;;;;;8.57;100.00;102565.88;4995546;28;47821;-76
2023/02/20 07:08:46;;;;;;;;;19.00;16.00;;;;;8.57;100.00;102565.88;5009255;28;45497;-77
2023/02/20 07:11:12;;;;;;;;;23.00;19.25;;;;;8.58;100.00;102568.59;5029311;28;46179;-76
2023/02/20 07:13:38;;;;;;;;;24.25;19.00;;;;;8.61;100.00;102565.19;5031051;28;45542;-75
2023/02/20 07:16:03;;;;;;;;;25.25;18.75;;;;;8.63;100.00;102571.44;5020274;28;46012;-76
2023/02/20 07:18:29;;;;;;;;;21.00;14.75;;;;;8.69;100.00;102579.63;5008915;28;45473;-76
2023/02/20 07:20:54;;;;;;;;;17.25;14.25;;;;;8.74;100.00;102582.47;5023519;28;51581;-74
2023/02/20 07:23:20;;;;;;;;;17.25;13.75;;;;;8.78;100.00;102581.78;5040140;28;45458;-73
2023/02/20 07:25:46;;;;;;;;;22.50;15.25;;;;;8.77;100.00;102578.25;5019979;28;46508;-73
2023/02/20 07:28:13;;;;;;;;;20.25;14.25;;;;;8.80;100.00;102578.41;5021644;28;45293;-73
2023/02/20 07:30:38;;;;;;;;;19.50;13.25;;;;;8.86;100.00;102583.94;5021436;28;45533;-73
2023/02/20 07:33:03;;;;;;;;;19.75;16.75;;;;;8.92;100.00;102583.31;5036012;28;52817;-74
2023/02/20 07:35:29;;;;;;;;;19.00;16.50;;;;;8.95;100.00;102594.00;5023204;28;57853;-72
2023/02/20 07:37:54;;;;;;;;;15.00;14.50;;;;;9.01;100.00;102604.81;5034445;28;45532;-74
2023/02/20 07:40:19;;;;;;;;;20.75;15.00;;;;;9.02;100.00;102603.97;5019483;28;46173;-72
2023/02/20 07:42:45;;;;;;;;;13.25;13.00;;;;;9.06;100.00;102605.03;5021472;28;45565;-74
2023/02/20 07:45:12;;;;;;;;;18.25;15.50;;;;;9.06;100.00;102603.31;5038493;28;45646;-73
2023/02/20 07:47:37;;;;;;;;;17.25;12.50;;;;;9.12;100.00;102619.38;5026604;28;47600;-76
2023/02/20 07:50:03;;;;;;;;;21.75;18.50;;;;;9.13;100.00;102615.91;5038712;28;48608;-75
2023/02/20 07:52:28;;;;;;;;;20.75;16.50;;;;;9.13;100.00;102615.91;5022993;28;45419;-74
2023/02/20 07:54:53;;;;;;;;;20.25;12.50;;;;;9.13;100.00;102612.38;5040040;28;53692;-74
2023/02/20 07:57:19;;;;;;;;;16.00;11.25;;;;;9.16;100.00;102613.44;5018841;28;57162;-74
2023/02/20 07:59:44;;;;;;;;;22.50;12.75;;;;;9.18;100.00;102609.13;5019261;28;45471;-75
2023/02/20 08:02:10;;;;;;;;;19.00;16.50;;;;;9.21;100.00;102605.69;5038770;28;50460;-77
2023/02/20 08:04:35;;;;;;;;;20.75;18.25;;;;;9.27;100.00;102621.81;5268731;22;46304;-74
2023/02/20 08:07:00;;;;;;;;;12.25;8.75;;;;;9.32;100.00;102622.94;5039064;28;45500;-73
2023/02/20 08:09:26;;;;;;;;;22.50;14.25;;;;;9.37;100.00;102623.09;5042176;28;49588;-74
2023/02/20 08:11:51;;;;;;;;;23.50;16.00;;;;;9.38;100.00;102617.94;5043076;28;45500;-73
2023/02/20 08:14:16;;;;;;;;;24.75;14.25;;;;;9.42;100.00;102613.66;5026930;28;48598;-74
2023/02/20 08:16:42;;;;;;;;;21.50;14.25;;;;;9.49;100.00;102625.41;5039054;28;45492;-73
2023/02/20 08:19:07;;;;;;;;;26.25;16.00;;;;;9.52;100.00;102628.16;5039957;28;45388;-75
2023/02/20 08:21:32;;;;;;;;;20.00;12.25;;;;;9.52;100.00;102630.81;5039155;28;54853;-75
2023/02/20 08:23:58;;;;;;;;;19.25;14.25;;;;;9.56;100.00;102635.38;5036917;28;57245;-74
2023/02/20 08:26:23;;;;;;;;;20.50;19.00;;;;;9.62;100.00;102638.28;5034965;28;45421;-75
2023/02/20 08:28:49;;;;;;;;;30.75;20.75;;;;;9.66;100.00;102641.13;5047900;28;45583;-73
2023/02/20 08:31:15;;;;;;;;;20.50;16.50;;;;;9.68;100.00;102628.00;5035523;28;45438;-73
2023/02/20 08:33:40;;;;;;;;;31.75;26.00;;;;;9.70;100.00;102627.25;5034245;28;45796;-74
2023/02/20 08:36:06;;;;;;;;;41.50;27.75;;;;;9.77;100.00;102627.50;5050618;28;45451;-76
2023/02/20 08:38:34;;;;;;;;;29.75;24.50;;;;;9.78;100.00;102634.56;5060520;28;45431;-77
2023/02/20 08:41:02;;;;;;;;;27.00;20.25;;;;;9.81;100.00;102624.19;5051358;28;45562;-78
2023/02/20 08:43:27;;;;;;;;;21.75;17.00;;;;;9.87;100.00;102635.88;5043073;28;47033;-75
2023/02/20 08:45:53;;;;;;;;;26.25;21.75;;;;;9.89;100.00;102623.63;5060931;28;57429;-74
2023/02/20 08:48:18;;;;;;;;;20.50;15.25;;;;;9.96;100.00;102633.66;5039756;28;47145;-74
2023/02/20 08:50:45;;;;;;;;;19.25;16.75;;;;;10.02;100.00;102625.09;5058245;28;55848;-74
2023/02/20 08:53:11;;;;;;;;;19.25;13.25;;;;;10.00;100.00;102615.28;5044951;28;45784;-74
2023/02/20 08:55:36;;;;;;;;;14.50;14.50;;;;;10.05;100.00;102619.91;5062161;28;45427;-74
2023/02/20 08:58:02;;;;;;;;;17.50;13.75;;;;;10.09;100.00;102623.59;5040736;28;57038;-74
2023/02/20 09:00:27;;;;;;;;;13.50;12.75;;;;;10.12;100.00;102615.78;5069528;28;45416;-74
2023/02/20 09:02:52;;;;;;;;;17.50;12.75;;;;;10.14;100.00;102612.38;5043448;28;59585;-76
2023/02/20 09:05:18;;;;;;;;;17.25;12.00;;;;;10.15;100.00;102614.19;5065315;28;57002;-74
2023/02/20 09:07:44;;;;;;;;;17.25;16.25;;;;;10.16;100.00;102623.91;5047655;28;45521;-74
2023/02/20 09:10:09;;;;;;;;;21.00;15.75;;;;;10.15;100.00;102619.47;5038279;28;45512;-74
2023/02/20 09:12:35;;;;;;;;;18.50;13.00;;;;;10.15;100.00;102616.81;5040296;28;48607;-75
2023/02/20 09:15:01;;;;;;;;;15.25;13.00;;;;;10.15;100.00;102610.66;5057408;28;45582;-74
2023/02/20 09:17:27;;;;;;;;;18.50;13.50;;;;;10.23;100.00;102612.81;5042068;28;45567;-73
2023/02/20 09:19:52;;;;;;;;;20.75;16.00;;;;;10.29;100.00;102621.81;5043382;28;45357;-75
2023/02/20 09:22:25;;;;;;;;;15.25;13.25;;;;;10.31;100.00;102614.84;5061365;28;56384;-75
2023/02/20 09:24:51;;;;;;;;;17.50;12.50;;;;;10.29;100.00;102611.25;5062819;28;45444;-74
2023/02/20 09:27:17;;;;;;;;;18.00;11.75;;;;;10.30;100.00;102613.06;5062260;28;45324;-76
2023/02/20 09:29:43;;;;;;;;;15.50;13.50;;;;;10.35;100.00;102616.78;5048935;28;45265;-76
2023/02/20 09:32:09;;;;;;;;;21.75;16.50;;;;;10.39;100.00;102616.06;5041930;28;46496;-78
2023/02/20 09:34:34;;;;;;;;;19.25;15.00;;;;;10.47;100.00;102615.53;5038274;28;45588;-76
2023/02/20 09:36:59;;;;;;;;;16.75;11.75;;;;;10.47;100.00;102609.34;5040674;28;45560;-77
2023/02/20 09:39:25;;;;;;;;;20.50;17.50;;;;;10.54;100.00;102614.00;5042351;28;50746;-78
2023/02/20 09:41:50;;;;;;;;;21.00;18.50;;;;;10.59;100.00;102611.56;5017695;28;65952;-77
2023/02/20 09:44:21;;;;;;;;;23.50;16.25;;;;;10.67;100.00;102612.78;5055140;28;45522;-76
2023/02/20 09:46:48;;;;;;;;;24.00;19.00;;;;;10.72;100.00;102611.22;5058000;28;45280;-76
2023/02/20 09:49:26;;;;;;;;;19.75;15.75;;;;;10.72;100.00;102604.19;5034380;28;46236;-76
2023/02/20 09:52:12;;;;;;;;;27.25;20.25;;;;;10.78;100.00;102605.28;5037515;28;46862;-77
2023/02/20 09:54:48;;;;;;;;;21.75;18.50;;;;;10.79;100.00;102605.31;5034373;28;45463;-78
2023/02/20 09:57:20;;;;;;;;;33.75;20.50;;;;;10.85;100.00;102607.28;5036844;28;45444;-75
2023/02/20 09:59:56;;;;;;;;;23.25;23.25;;;;;10.85;100.00;102602.00;5055195;28;45463;-76
2023/02/20 10:02:44;;;;;;;;;31.25;20.00;;;;;10.92;100.00;102614.59;5057289;28;46553;-78
2023/02/20 10:05:17;;;;;;;;;22.75;18.00;;;;;10.95;100.00;102605.06;5025758;28;45566;-75
2023/02/20 10:07:43;;;;;;;;;19.00;13.75;;;;;10.97;100.00;102610.38;5037842;28;47201;-77
2023/02/20 10:10:19;;;;;;;;;19.75;12.75;;;;;11.01;100.00;102623.78;5013501;28;52696;-75
2023/02/20 10:13:09;;;;;;;;;14.25;10.75;;;;;11.05;100.00;102621.28;5035293;28;45810;-76
2023/02/20 10:15:59;;;;;;;;;14.25;10.00;;;;;11.08;100.00;102613.44;5016688;28;45591;-77
2023/02/20 10:18:24;;;;;;;;;14.00;11.00;;;;;11.09;100.00;102609.97;5035163;28;45413;-78
2023/02/20 10:23:47;;;;;;;;;15.00;9.75;;;;;11.12;100.00;102608.31;5052683;28;46841;-75
2023/02/20 10:26:27;;;;;;;;;28.00;21.00;;;;;11.15;100.00;102610.22;5034414;28;45440;-75
2023/02/20 10:28:55;;;;;;;;;23.75;20.00;;;;;11.18;100.00;102612.94;5020336;28;45492;-74
2023/02/20 10:31:40;;;;;;;;;21.25;20.75;;;;;11.20;100.00;102616.56;5037397;28;45501;-74
2023/02/20 10:34:10;;;;;;;;;21.50;18.50;;;;;11.20;100.00;102619.22;5036872;28;47317;-74
2023/02/20 10:36:39;;;;;;;;;15.75;15.75;;;;;11.20;100.00;102613.91;5036012;28;45574;-76
2023/02/20 10:39:16;;;;;;;;;20.00;14.50;;;;;11.23;100.00;102614.00;5036044;22;45545;-75
2023/02/20 10:44:30;;;;;;;;;15.50;14.75;;;;;11.33;100.00;102616.16;5060659;22;74487;-77
2023/02/20 10:47:14;;;;;;;;;16.50;12.75;;;;;11.35;100.00;102622.41;5038548;28;45627;-76
2023/02/20 10:50:26;;;;;;;;;18.50;15.00;;;;;11.34;100.00;102617.94;5050177;28;45531;-74
2023/02/20 10:53:32;;;;;;;;;21.00;14.00;;;;;11.33;100.00;102613.50;5032766;28;45346;-74
2023/02/20 10:56:04;;;;;;;;;34.25;23.75;;;;;11.34;100.00;102614.41;5028584;28;48729;-76
2023/02/20 10:59:05;;;;;;;;;13.25;8.25;;;;;11.42;100.00;102610.31;5041539;28;46486;-74
2023/02/20 11:01:30;;;;;;;;;15.00;13.00;;;;;11.46;100.00;102621.06;5037213;28;45513;-75
2023/02/20 11:04:08;;;;;;;;;14.75;14.00;;;;;11.46;100.00;102615.78;5034589;28;45584;-76
2023/02/20 11:06:45;;;;;;;;;17.75;12.75;;;;;11.52;100.00;102615.09;5039779;28;46737;-76
2023/02/20 11:09:12;;;;;;;;;16.00;14.25;;;;;11.58;100.00;102617.03;5018913;28;45548;-79
2023/02/20 11:11:41;;;;;;;;;16.75;14.50;;;;;11.59;100.00;102605.63;5037224;28;45479;-75
2023/02/20 11:14:15;;;;;;;;;14.75;14.25;;;;;11.62;100.00;102603.09;5037292;28;46171;-78
2023/02/20 11:16:43;;;;;;;;;15.75;10.75;;;;;11.66;100.00;102604.97;5036776;28;46397;-76
2023/02/20 11:19:20;;;;;;;;;17.00;16.25;;;;;11.70;100.00;102612.19;5054887;28;45459;-76
2023/02/20 11:21:47;;;;;;;;;15.50;13.25;;;;;11.68;100.00;102596.25;5028784;28;45532;-78
2023/02/20 11:24:27;;;;;;;;;14.25;10.75;;;;;11.69;100.00;102598.06;5055021;28;45409;-76
2023/02/20 11:26:57;;;;;;;;;15.25;14.75;;;;;11.73;100.00;102592.03;5036424;28;47884;-76
2023/02/20 11:29:23;;;;;;;;;18.50;15.00;;;;;11.78;100.00;102592.19;5037479;28;45342;-75
2023/02/20 11:31:48;;;;;;;;;15.75;12.00;;;;;11.81;100.00;102592.28;5053872;28;54030;-77
2023/02/20 11:34:18;;;;;;;;;10.75;9.75;;;;;11.83;100.00;102588.00;5035884;28;45314;-79
2023/02/20 11:36:54;;;;;;;;;16.50;13.00;;;;;11.87;100.00;102575.72;5034962;28;46484;-74